Terminal Aerodrome Forecast
Issued by NWS Green Bay, WI

Home | Current Version | Previous Version | Text Only | Print | Product List | Glossary On
Versions: 1 2 3 4 5 6 7 8 9 10 11 12 13 14 15 16 17 18 19 20 21 22 23 24 25 26 27 28 29 30 31 32 33 34 35
000
FTUS43 KGRB 231700
TAFGRB
TAF
KGRB 231732Z 2318/2418 23006KT P6SM SCT035
     FM240000 18004KT P6SM SKC
     FM240800 00000KT 4SM BR SCT250
      TEMPO 2410/2412 1SM BR
     FM241300 19006KT P6SM BKN150=

USA.gov is the U.S. government's official web portal to all federal, state and local government web resources and services.